sensor_id;sensor_type;location;lat;lon;timestamp;P1;durP1;ratioP1;P2;durP2;ratioP2
23206;SDS011;11773;52.570;13.052;2023-06-14T00:00:37;0.40;;;0.40;;
23206;SDS011;11773;52.570;13.052;2023-06-14T00:03:08;0.40;;;0.40;;
23206;SDS011;11773;52.570;13.052;2023-06-14T00:05:39;0.40;;;0.40;;
23206;SDS011;11773;52.570;13.052;2023-06-14T00:08:10;0.83;;;0.83;;
23206;SDS011;11773;52.570;13.052;2023-06-14T00:10:40;0.50;;;0.50;;
23206;SDS011;11773;52.570;13.052;2023-06-14T00:13:09;0.50;;;0.50;;
23206;SDS011;11773;52.570;13.052;2023-06-14T00:15:40;0.50;;;0.50;;
23206;SDS011;11773;52.570;13.052;2023-06-14T00:18:10;0.50;;;0.50;;
23206;SDS011;11773;52.570;13.052;2023-06-14T00:20:39;0.50;;;0.50;;
23206;SDS011;11773;52.570;13.052;2023-06-14T00:23:09;0.50;;;0.50;;
23206;SDS011;11773;52.570;13.052;2023-06-14T00:25:39;0.37;;;0.37;;
23206;SDS011;11773;52.570;13.052;2023-06-14T00:28:09;0.50;;;0.50;;
23206;SDS011;11773;52.570;13.052;2023-06-14T00:30:38;0.60;;;0.60;;
23206;SDS011;11773;52.570;13.052;2023-06-14T00:33:08;0.67;;;0.67;;
23206;SDS011;11773;52.570;13.052;2023-06-14T00:35:37;0.50;;;0.50;;
23206;SDS011;11773;52.570;13.052;2023-06-14T00:38:07;0.43;;;0.40;;
23206;SDS011;11773;52.570;13.052;2023-06-14T00:40:37;0.60;;;0.50;;
23206;SDS011;11773;52.570;13.052;2023-06-14T00:43:06;0.40;;;0.40;;
23206;SDS011;11773;52.570;13.052;2023-06-14T00:45:36;0.50;;;0.50;;
23206;SDS011;11773;52.570;13.052;2023-06-14T00:48:05;0.50;;;0.50;;
23206;SDS011;11773;52.570;13.052;2023-06-14T00:50:37;0.50;;;0.50;;
23206;SDS011;11773;52.570;13.052;2023-06-14T00:53:07;0.70;;;0.70;;
23206;SDS011;11773;52.570;13.052;2023-06-14T00:55:37;0.50;;;0.50;;
23206;SDS011;11773;52.570;13.052;2023-06-14T00:58:07;0.50;;;0.50;;
23206;SDS011;11773;52.570;13.052;2023-06-14T01:00:37;0.47;;;0.47;;
23206;SDS011;11773;52.570;13.052;2023-06-14T01:03:07;0.70;;;0.70;;
23206;SDS011;11773;52.570;13.052;2023-06-14T01:05:38;0.47;;;0.47;;
23206;SDS011;11773;52.570;13.052;2023-06-14T01:10:58;0.50;;;0.50;;
23206;SDS011;11773;52.570;13.052;2023-06-14T01:13:43;0.77;;;0.30;;
23206;SDS011;11773;52.570;13.052;2023-06-14T01:16:15;0.50;;;0.50;;
23206;SDS011;11773;52.570;13.052;2023-06-14T01:18:45;1.00;;;0.60;;
23206;SDS011;11773;52.570;13.052;2023-06-14T01:21:20;0.60;;;0.60;;
23206;SDS011;11773;52.570;13.052;2023-06-14T01:23:52;0.57;;;0.57;;
23206;SDS011;11773;52.570;13.052;2023-06-14T01:26:22;0.40;;;0.40;;
23206;SDS011;11773;52.570;13.052;2023-06-14T01:28:54;0.57;;;0.57;;
23206;SDS011;11773;52.570;13.052;2023-06-14T01:31:25;0.40;;;0.40;;
23206;SDS011;11773;52.570;13.052;2023-06-14T01:33:56;0.50;;;0.50;;
23206;SDS011;11773;52.570;13.052;2023-06-14T01:36:26;0.70;;;0.70;;
23206;SDS011;11773;52.570;13.052;2023-06-14T01:38:57;0.70;;;0.60;;
23206;SDS011;11773;52.570;13.052;2023-06-14T01:41:28;0.50;;;0.50;;
23206;SDS011;11773;52.570;13.052;2023-06-14T01:43:59;0.47;;;0.47;;
23206;SDS011;11773;52.570;13.052;2023-06-14T01:46:30;0.50;;;0.50;;
23206;SDS011;11773;52.570;13.052;2023-06-14T01:49:00;0.40;;;0.40;;
23206;SDS011;11773;52.570;13.052;2023-06-14T01:51:30;0.33;;;0.30;;
23206;SDS011;11773;52.570;13.052;2023-06-14T01:53:59;0.30;;;0.30;;
23206;SDS011;11773;52.570;13.052;2023-06-14T01:56:29;0.60;;;0.60;;
23206;SDS011;11773;52.570;13.052;2023-06-14T01:58:59;0.60;;;0.60;;
23206;SDS011;11773;52.570;13.052;2023-06-14T02:01:29;0.60;;;0.60;;
23206;SDS011;11773;52.570;13.052;2023-06-14T02:04:00;0.60;;;0.60;;
23206;SDS011;11773;52.570;13.052;2023-06-14T02:06:30;0.40;;;0.40;;
23206;SDS011;11773;52.570;13.052;2023-06-14T02:09:00;0.60;;;0.60;;
23206;SDS011;11773;52.570;13.052;2023-06-14T02:11:30;0.70;;;0.70;;
23206;SDS011;11773;52.570;13.052;2023-06-14T02:14:00;0.50;;;0.50;;
23206;SDS011;11773;52.570;13.052;2023-06-14T02:16:29;0.50;;;0.50;;
23206;SDS011;11773;52.570;13.052;2023-06-14T02:19:00;0.60;;;0.60;;
23206;SDS011;11773;52.570;13.052;2023-06-14T02:21:29;0.40;;;0.40;;
23206;SDS011;11773;52.570;13.052;2023-06-14T02:23:59;0.50;;;0.50;;
23206;SDS011;11773;52.570;13.052;2023-06-14T02:26:28;0.33;;;0.33;;
23206;SDS011;11773;52.570;13.052;2023-06-14T02:28:59;0.50;;;0.50;;
23206;SDS011;11773;52.570;13.052;2023-06-14T02:31:29;1.37;;;0.60;;
23206;SDS011;11773;52.570;13.052;2023-06-14T02:33:59;0.70;;;0.70;;
23206;SDS011;11773;52.570;13.052;2023-06-14T02:36:29;0.50;;;0.50;;
23206;SDS011;11773;52.570;13.052;2023-06-14T02:38:58;0.50;;;0.50;;
23206;SDS011;11773;52.570;13.052;2023-06-14T02:41:28;0.77;;;0.67;;
23206;SDS011;11773;52.570;13.052;2023-06-14T02:43:57;0.57;;;0.50;;
23206;SDS011;11773;52.570;13.052;2023-06-14T02:46:27;0.50;;;0.50;;
23206;SDS011;11773;52.570;13.052;2023-06-14T02:48:57;0.50;;;0.50;;
23206;SDS011;11773;52.570;13.052;2023-06-14T02:51:27;0.50;;;0.50;;
23206;SDS011;11773;52.570;13.052;2023-06-14T02:53:56;0.40;;;0.40;;
23206;SDS011;11773;52.570;13.052;2023-06-14T02:56:26;0.40;;;0.40;;
23206;SDS011;11773;52.570;13.052;2023-06-14T02:58:55;0.40;;;0.40;;
23206;SDS011;11773;52.570;13.052;2023-06-14T03:01:25;0.50;;;0.50;;
23206;SDS011;11773;52.570;13.052;2023-06-14T03:04:02;0.50;;;0.50;;
23206;SDS011;11773;52.570;13.052;2023-06-14T03:06:32;0.40;;;0.40;;
23206;SDS011;11773;52.570;13.052;2023-06-14T03:09:01;0.57;;;0.57;;
23206;SDS011;11773;52.570;13.052;2023-06-14T03:11:36;0.60;;;0.60;;
23206;SDS011;11773;52.570;13.052;2023-06-14T03:14:06;0.67;;;0.67;;
23206;SDS011;11773;52.570;13.052;2023-06-14T03:16:36;0.60;;;0.60;;
23206;SDS011;11773;52.570;13.052;2023-06-14T03:19:06;0.40;;;0.40;;
23206;SDS011;11773;52.570;13.052;2023-06-14T03:21:35;0.70;;;0.70;;
23206;SDS011;11773;52.570;13.052;2023-06-14T03:24:05;0.40;;;0.40;;
23206;SDS011;11773;52.570;13.052;2023-06-14T03:26:35;0.63;;;0.63;;
23206;SDS011;11773;52.570;13.052;2023-06-14T03:29:05;1.30;;;0.63;;
23206;SDS011;11773;52.570;13.052;2023-06-14T03:31:34;0.63;;;0.63;;
23206;SDS011;11773;52.570;13.052;2023-06-14T03:34:06;0.70;;;0.70;;
23206;SDS011;11773;52.570;13.052;2023-06-14T03:36:35;1.43;;;1.00;;
23206;SDS011;11773;52.570;13.052;2023-06-14T03:39:05;0.70;;;0.70;;
23206;SDS011;11773;52.570;13.052;2023-06-14T03:41:35;0.60;;;0.60;;
23206;SDS011;11773;52.570;13.052;2023-06-14T03:44:05;0.87;;;0.83;;
23206;SDS011;11773;52.570;13.052;2023-06-14T03:46:34;0.80;;;0.80;;
23206;SDS011;11773;52.570;13.052;2023-06-14T03:49:04;0.87;;;0.80;;
23206;SDS011;11773;52.570;13.052;2023-06-14T03:51:34;0.60;;;0.60;;
23206;SDS011;11773;52.570;13.052;2023-06-14T03:54:03;1.60;;;0.80;;
23206;SDS011;11773;52.570;13.052;2023-06-14T03:56:35;0.63;;;0.63;;
23206;SDS011;11773;52.570;13.052;2023-06-14T03:59:05;0.80;;;0.80;;
23206;SDS011;11773;52.570;13.052;2023-06-14T04:01:34;0.63;;;0.63;;
23206;SDS011;11773;52.570;13.052;2023-06-14T04:04:04;0.60;;;0.60;;
23206;SDS011;11773;52.570;13.052;2023-06-14T04:06:34;0.60;;;0.60;;
23206;SDS011;11773;52.570;13.052;2023-06-14T04:09:03;0.73;;;0.73;;
23206;SDS011;11773;52.570;13.052;2023-06-14T04:11:33;0.80;;;0.70;;
23206;SDS011;11773;52.570;13.052;2023-06-14T04:14:03;0.80;;;0.77;;
23206;SDS011;11773;52.570;13.052;2023-06-14T04:16:33;0.77;;;0.77;;
23206;SDS011;11773;52.570;13.052;2023-06-14T04:19:03;1.03;;;0.80;;
23206;SDS011;11773;52.570;13.052;2023-06-14T04:21:32;0.80;;;0.80;;
23206;SDS011;11773;52.570;13.052;2023-06-14T04:24:02;1.00;;;0.70;;
23206;SDS011;11773;52.570;13.052;2023-06-14T04:26:34;0.60;;;0.60;;
23206;SDS011;11773;52.570;13.052;2023-06-14T04:29:03;0.97;;;0.80;;
23206;SDS011;11773;52.570;13.052;2023-06-14T04:31:33;0.97;;;0.80;;
23206;SDS011;11773;52.570;13.052;2023-06-14T04:34:04;0.80;;;0.80;;
23206;SDS011;11773;52.570;13.052;2023-06-14T04:36:34;1.03;;;0.90;;
23206;SDS011;11773;52.570;13.052;2023-06-14T04:39:05;1.20;;;1.10;;
23206;SDS011;11773;52.570;13.052;2023-06-14T04:41:35;1.10;;;1.00;;
23206;SDS011;11773;52.570;13.052;2023-06-14T04:44:05;0.93;;;0.93;;
23206;SDS011;11773;52.570;13.052;2023-06-14T04:46:34;1.97;;;1.77;;
23206;SDS011;11773;52.570;13.052;2023-06-14T04:49:14;1.40;;;1.30;;
23206;SDS011;11773;52.570;13.052;2023-06-14T04:51:45;0.97;;;0.97;;
23206;SDS011;11773;52.570;13.052;2023-06-14T04:54:16;1.50;;;1.20;;
23206;SDS011;11773;52.570;13.052;2023-06-14T04:56:47;1.30;;;1.20;;
23206;SDS011;11773;52.570;13.052;2023-06-14T04:59:16;1.70;;;1.60;;
23206;SDS011;11773;52.570;13.052;2023-06-14T05:01:46;1.83;;;1.40;;
23206;SDS011;11773;52.570;13.052;2023-06-14T05:04:17;1.23;;;1.13;;
23206;SDS011;11773;52.570;13.052;2023-06-14T05:06:49;1.47;;;1.27;;
23206;SDS011;11773;52.570;13.052;2023-06-14T05:09:20;1.03;;;1.03;;
23206;SDS011;11773;52.570;13.052;2023-06-14T05:11:50;1.40;;;1.30;;
23206;SDS011;11773;52.570;13.052;2023-06-14T05:14:20;0.90;;;0.90;;
23206;SDS011;11773;52.570;13.052;2023-06-14T05:16:49;1.43;;;1.13;;
23206;SDS011;11773;52.570;13.052;2023-06-14T05:19:19;1.47;;;1.37;;
23206;SDS011;11773;52.570;13.052;2023-06-14T05:21:49;2.47;;;1.70;;
23206;SDS011;11773;52.570;13.052;2023-06-14T05:24:18;2.60;;;2.40;;
23206;SDS011;11773;52.570;13.052;2023-06-14T05:26:48;2.80;;;2.07;;
23206;SDS011;11773;52.570;13.052;2023-06-14T05:29:18;2.90;;;2.40;;
23206;SDS011;11773;52.570;13.052;2023-06-14T05:31:47;2.30;;;2.10;;
23206;SDS011;11773;52.570;13.052;2023-06-14T05:34:17;2.07;;;1.97;;
23206;SDS011;11773;52.570;13.052;2023-06-14T05:36:47;2.33;;;2.10;;
23206;SDS011;11773;52.570;13.052;2023-06-14T05:39:17;2.20;;;2.00;;
23206;SDS011;11773;52.570;13.052;2023-06-14T05:41:46;1.97;;;1.83;;
23206;SDS011;11773;52.570;13.052;2023-06-14T05:44:17;1.90;;;1.80;;
23206;SDS011;11773;52.570;13.052;2023-06-14T05:46:46;1.70;;;1.60;;
23206;SDS011;11773;52.570;13.052;2023-06-14T05:49:16;1.53;;;1.43;;
23206;SDS011;11773;52.570;13.052;2023-06-14T05:51:45;1.50;;;1.40;;
23206;SDS011;11773;52.570;13.052;2023-06-14T05:54:15;1.80;;;1.70;;
23206;SDS011;11773;52.570;13.052;2023-06-14T05:56:45;1.80;;;1.70;;
23206;SDS011;11773;52.570;13.052;2023-06-14T05:59:14;1.60;;;1.50;;
23206;SDS011;11773;52.570;13.052;2023-06-14T06:01:44;1.93;;;1.60;;
23206;SDS011;11773;52.570;13.052;2023-06-14T06:04:14;1.60;;;1.50;;
23206;SDS011;11773;52.570;13.052;2023-06-14T06:06:43;1.93;;;1.73;;
23206;SDS011;11773;52.570;13.052;2023-06-14T06:09:14;1.87;;;1.70;;
23206;SDS011;11773;52.570;13.052;2023-06-14T06:11:44;1.70;;;1.60;;
23206;SDS011;11773;52.570;13.052;2023-06-14T06:14:15;1.60;;;1.50;;
23206;SDS011;11773;52.570;13.052;2023-06-14T06:16:45;1.60;;;1.50;;
23206;SDS011;11773;52.570;13.052;2023-06-14T06:19:14;1.70;;;1.60;;
23206;SDS011;11773;52.570;13.052;2023-06-14T06:21:44;2.10;;;1.75;;
23206;SDS011;11773;52.570;13.052;2023-06-14T06:24:14;1.47;;;1.37;;
23206;SDS011;11773;52.570;13.052;2023-06-14T06:26:43;1.30;;;1.20;;
23206;SDS011;11773;52.570;13.052;2023-06-14T06:29:13;1.33;;;1.23;;
23206;SDS011;11773;52.570;13.052;2023-06-14T06:31:42;1.27;;;1.20;;
23206;SDS011;11773;52.570;13.052;2023-06-14T06:34:12;0.80;;;0.80;;
23206;SDS011;11773;52.570;13.052;2023-06-14T06:36:42;1.33;;;1.23;;
23206;SDS011;11773;52.570;13.052;2023-06-14T06:39:12;1.40;;;1.30;;
23206;SDS011;11773;52.570;13.052;2023-06-14T06:41:42;1.60;;;1.50;;
23206;SDS011;11773;52.570;13.052;2023-06-14T06:44:11;2.73;;;2.17;;
23206;SDS011;11773;52.570;13.052;2023-06-14T06:46:41;2.83;;;1.80;;
23206;SDS011;11773;52.570;13.052;2023-06-14T06:49:12;1.53;;;1.43;;
23206;SDS011;11773;52.570;13.052;2023-06-14T06:51:42;1.83;;;1.60;;
23206;SDS011;11773;52.570;13.052;2023-06-14T06:54:13;1.30;;;1.20;;
23206;SDS011;11773;52.570;13.052;2023-06-14T06:56:42;1.30;;;1.20;;
23206;SDS011;11773;52.570;13.052;2023-06-14T06:59:12;1.30;;;1.20;;
23206;SDS011;11773;52.570;13.052;2023-06-14T07:01:43;1.40;;;1.30;;
23206;SDS011;11773;52.570;13.052;2023-06-14T07:04:13;1.63;;;1.50;;
23206;SDS011;11773;52.570;13.052;2023-06-14T07:06:43;1.73;;;1.63;;
23206;SDS011;11773;52.570;13.052;2023-06-14T07:09:14;1.67;;;1.57;;
23206;SDS011;11773;52.570;13.052;2023-06-14T07:11:46;1.83;;;1.73;;
23206;SDS011;11773;52.570;13.052;2023-06-14T07:14:16;1.30;;;1.20;;
23206;SDS011;11773;52.570;13.052;2023-06-14T07:16:46;1.37;;;1.27;;
23206;SDS011;11773;52.570;13.052;2023-06-14T07:19:16;1.43;;;1.33;;
23206;SDS011;11773;52.570;13.052;2023-06-14T07:21:46;1.30;;;1.20;;
23206;SDS011;11773;52.570;13.052;2023-06-14T07:24:15;1.60;;;1.50;;
23206;SDS011;11773;52.570;13.052;2023-06-14T07:26:45;1.37;;;1.27;;
23206;SDS011;11773;52.570;13.052;2023-06-14T07:29:15;1.50;;;1.40;;
23206;SDS011;11773;52.570;13.052;2023-06-14T07:31:45;1.83;;;1.73;;
23206;SDS011;11773;52.570;13.052;2023-06-14T07:34:15;1.53;;;1.43;;
23206;SDS011;11773;52.570;13.052;2023-06-14T07:36:44;3.33;;;1.73;;
23206;SDS011;11773;52.570;13.052;2023-06-14T07:39:14;5.60;;;2.10;;
23206;SDS011;11773;52.570;13.052;2023-06-14T07:41:44;1.40;;;1.30;;
23206;SDS011;11773;52.570;13.052;2023-06-14T07:44:13;2.00;;;1.90;;
23206;SDS011;11773;52.570;13.052;2023-06-14T07:46:43;1.70;;;1.60;;
23206;SDS011;11773;52.570;13.052;2023-06-14T07:49:14;2.10;;;1.90;;
23206;SDS011;11773;52.570;13.052;2023-06-14T07:51:44;2.13;;;1.93;;
23206;SDS011;11773;52.570;13.052;2023-06-14T07:54:15;1.90;;;1.43;;
23206;SDS011;11773;52.570;13.052;2023-06-14T07:56:44;1.80;;;1.70;;
23206;SDS011;11773;52.570;13.052;2023-06-14T07:59:14;1.70;;;1.60;;
23206;SDS011;11773;52.570;13.052;2023-06-14T08:01:44;1.83;;;1.40;;
23206;SDS011;11773;52.570;13.052;2023-06-14T08:04:15;3.70;;;2.20;;
23206;SDS011;11773;52.570;13.052;2023-06-14T08:06:46;2.20;;;2.10;;
23206;SDS011;11773;52.570;13.052;2023-06-14T08:09:16;1.70;;;1.60;;
23206;SDS011;11773;52.570;13.052;2023-06-14T08:11:46;2.20;;;2.00;;
23206;SDS011;11773;52.570;13.052;2023-06-14T08:14:15;2.00;;;1.50;;
23206;SDS011;11773;52.570;13.052;2023-06-14T08:16:45;1.50;;;1.40;;
23206;SDS011;11773;52.570;13.052;2023-06-14T08:19:15;2.23;;;1.60;;
23206;SDS011;11773;52.570;13.052;2023-06-14T08:21:45;1.57;;;1.47;;
23206;SDS011;11773;52.570;13.052;2023-06-14T08:24:14;1.60;;;1.50;;
23206;SDS011;11773;52.570;13.052;2023-06-14T08:26:46;1.87;;;1.40;;
23206;SDS011;11773;52.570;13.052;2023-06-14T08:29:15;1.60;;;1.50;;
23206;SDS011;11773;52.570;13.052;2023-06-14T08:31:46;1.87;;;1.30;;
23206;SDS011;11773;52.570;13.052;2023-06-14T08:34:16;2.60;;;1.60;;
23206;SDS011;11773;52.570;13.052;2023-06-14T08:36:46;1.70;;;1.50;;
23206;SDS011;11773;52.570;13.052;2023-06-14T08:39:15;1.53;;;1.40;;
23206;SDS011;11773;52.570;13.052;2023-06-14T08:41:45;1.50;;;1.40;;
23206;SDS011;11773;52.570;13.052;2023-06-14T08:44:16;1.67;;;1.50;;
23206;SDS011;11773;52.570;13.052;2023-06-14T08:46:47;1.20;;;1.10;;
23206;SDS011;11773;52.570;13.052;2023-06-14T08:49:19;1.70;;;1.60;;
23206;SDS011;11773;52.570;13.052;2023-06-14T08:51:52;1.87;;;1.30;;
23206;SDS011;11773;52.570;13.052;2023-06-14T08:54:32;2.30;;;2.00;;
23206;SDS011;11773;52.570;13.052;2023-06-14T08:56:59;1.60;;;1.50;;
23206;SDS011;11773;52.570;13.052;2023-06-14T08:59:31;1.57;;;1.47;;
23206;SDS011;11773;52.570;13.052;2023-06-14T09:02:03;2.03;;;1.90;;
23206;SDS011;11773;52.570;13.052;2023-06-14T09:04:35;1.90;;;1.80;;
23206;SDS011;11773;52.570;13.052;2023-06-14T09:07:06;1.90;;;1.70;;
23206;SDS011;11773;52.570;13.052;2023-06-14T09:09:40;2.57;;;2.10;;
23206;SDS011;11773;52.570;13.052;2023-06-14T09:12:11;1.90;;;1.70;;
23206;SDS011;11773;52.570;13.052;2023-06-14T09:14:41;2.30;;;2.10;;
23206;SDS011;11773;52.570;13.052;2023-06-14T09:17:12;2.10;;;1.90;;
23206;SDS011;11773;52.570;13.052;2023-06-14T09:19:43;1.70;;;1.60;;
23206;SDS011;11773;52.570;13.052;2023-06-14T09:22:16;2.20;;;2.00;;
23206;SDS011;11773;52.570;13.052;2023-06-14T09:24:45;2.40;;;2.20;;
23206;SDS011;11773;52.570;13.052;2023-06-14T09:27:15;1.80;;;1.70;;
23206;SDS011;11773;52.570;13.052;2023-06-14T09:29:45;1.57;;;1.47;;
23206;SDS011;11773;52.570;13.052;2023-06-14T09:32:14;1.70;;;1.60;;
23206;SDS011;11773;52.570;13.052;2023-06-14T09:34:45;1.53;;;1.43;;
23206;SDS011;11773;52.570;13.052;2023-06-14T09:37:30;2.13;;;1.93;;
23206;SDS011;11773;52.570;13.052;2023-06-14T09:40:02;2.20;;;1.83;;
23206;SDS011;11773;52.570;13.052;2023-06-14T09:42:34;2.40;;;2.20;;
23206;SDS011;11773;52.570;13.052;2023-06-14T09:45:04;2.47;;;1.90;;
23206;SDS011;11773;52.570;13.052;2023-06-14T09:47:34;2.00;;;1.90;;
23206;SDS011;11773;52.570;13.052;2023-06-14T09:50:05;2.40;;;2.20;;
23206;SDS011;11773;52.570;13.052;2023-06-14T09:52:35;3.00;;;2.50;;
23206;SDS011;11773;52.570;13.052;2023-06-14T09:55:07;2.30;;;2.10;;
23206;SDS011;11773;52.570;13.052;2023-06-14T09:57:41;2.20;;;2.00;;
23206;SDS011;11773;52.570;13.052;2023-06-14T10:00:13;1.67;;;1.57;;
23206;SDS011;11773;52.570;13.052;2023-06-14T10:02:46;2.03;;;1.57;;
23206;SDS011;11773;52.570;13.052;2023-06-14T10:05:21;2.23;;;2.03;;
23206;SDS011;11773;52.570;13.052;2023-06-14T10:08:08;3.30;;;2.53;;
23206;SDS011;11773;52.570;13.052;2023-06-14T10:10:35;2.70;;;2.13;;
23206;SDS011;11773;52.570;13.052;2023-06-14T10:13:07;3.67;;;2.40;;
23206;SDS011;11773;52.570;13.052;2023-06-14T10:15:39;2.50;;;2.30;;
23206;SDS011;11773;52.570;13.052;2023-06-14T10:22:09;2.30;;;2.10;;
23206;SDS011;11773;52.570;13.052;2023-06-14T10:24:52;2.37;;;2.17;;
23206;SDS011;11773;52.570;13.052;2023-06-14T10:27:21;2.33;;;2.13;;
23206;SDS011;11773;52.570;13.052;2023-06-14T10:32:29;2.00;;;1.90;;
23206;SDS011;11773;52.570;13.052;2023-06-14T10:35:01;2.70;;;2.50;;
23206;SDS011;11773;52.570;13.052;2023-06-14T10:37:34;2.27;;;2.00;;
23206;SDS011;11773;52.570;13.052;2023-06-14T10:40:04;4.27;;;2.87;;
23206;SDS011;11773;52.570;13.052;2023-06-14T10:42:35;2.23;;;2.13;;
23206;SDS011;11773;52.570;13.052;2023-06-14T10:45:05;2.20;;;2.00;;
23206;SDS011;11773;52.570;13.052;2023-06-14T10:47:36;2.13;;;2.00;;
23206;SDS011;11773;52.570;13.052;2023-06-14T10:50:07;1.80;;;1.70;;
23206;SDS011;11773;52.570;13.052;2023-06-14T10:52:41;2.20;;;2.00;;
23206;SDS011;11773;52.570;13.052;2023-06-14T10:55:14;3.40;;;2.30;;
23206;SDS011;11773;52.570;13.052;2023-06-14T10:57:50;3.40;;;2.43;;
23206;SDS011;11773;52.570;13.052;2023-06-14T11:00:27;2.70;;;2.40;;
23206;SDS011;11773;52.570;13.052;2023-06-14T11:05:54;2.80;;;2.60;;
23206;SDS011;11773;52.570;13.052;2023-06-14T11:08:39;2.47;;;2.27;;
23206;SDS011;11773;52.570;13.052;2023-06-14T11:11:31;1.93;;;1.80;;
23206;SDS011;11773;52.570;13.052;2023-06-14T11:14:01;3.23;;;2.37;;
23206;SDS011;11773;52.570;13.052;2023-06-14T11:16:32;2.30;;;2.10;;
23206;SDS011;11773;52.570;13.052;2023-06-14T11:19:02;1.90;;;1.77;;
23206;SDS011;11773;52.570;13.052;2023-06-14T11:21:32;1.97;;;1.77;;
23206;SDS011;11773;52.570;13.052;2023-06-14T11:24:02;2.47;;;1.93;;
23206;SDS011;11773;52.570;13.052;2023-06-14T11:26:32;1.93;;;1.83;;
23206;SDS011;11773;52.570;13.052;2023-06-14T11:29:02;1.90;;;1.80;;
23206;SDS011;11773;52.570;13.052;2023-06-14T11:31:32;2.23;;;1.90;;
23206;SDS011;11773;52.570;13.052;2023-06-14T11:34:02;1.70;;;1.60;;
23206;SDS011;11773;52.570;13.052;2023-06-14T11:36:33;2.90;;;1.90;;
23206;SDS011;11773;52.570;13.052;2023-06-14T11:39:03;2.00;;;1.90;;
23206;SDS011;11773;52.570;13.052;2023-06-14T11:41:36;3.03;;;2.53;;
23206;SDS011;11773;52.570;13.052;2023-06-14T11:44:11;2.33;;;2.13;;
23206;SDS011;11773;52.570;13.052;2023-06-14T11:46:41;1.83;;;1.70;;
23206;SDS011;11773;52.570;13.052;2023-06-14T11:49:10;1.90;;;1.80;;
23206;SDS011;11773;52.570;13.052;2023-06-14T11:51:40;2.10;;;1.93;;
23206;SDS011;11773;52.570;13.052;2023-06-14T11:54:11;2.90;;;2.53;;
23206;SDS011;11773;52.570;13.052;2023-06-14T11:56:41;2.50;;;2.30;;
23206;SDS011;11773;52.570;13.052;2023-06-14T11:59:13;2.63;;;2.40;;
23206;SDS011;11773;52.570;13.052;2023-06-14T12:01:43;2.20;;;2.00;;
23206;SDS011;11773;52.570;13.052;2023-06-14T12:04:13;2.13;;;1.93;;
23206;SDS011;11773;52.570;13.052;2023-06-14T12:06:44;2.00;;;1.87;;
23206;SDS011;11773;52.570;13.052;2023-06-14T12:09:15;1.67;;;1.33;;
23206;SDS011;11773;52.570;13.052;2023-06-14T12:11:45;1.70;;;1.60;;
23206;SDS011;11773;52.570;13.052;2023-06-14T12:14:15;1.50;;;1.40;;
23206;SDS011;11773;52.570;13.052;2023-06-14T12:16:45;2.17;;;2.00;;
23206;SDS011;11773;52.570;13.052;2023-06-14T12:19:15;3.23;;;2.23;;
23206;SDS011;11773;52.570;13.052;2023-06-14T12:21:46;2.27;;;2.07;;
23206;SDS011;11773;52.570;13.052;2023-06-14T12:24:17;2.80;;;2.10;;
23206;SDS011;11773;52.570;13.052;2023-06-14T12:26:47;2.07;;;1.93;;
23206;SDS011;11773;52.570;13.052;2023-06-14T12:29:19;1.90;;;1.80;;
23206;SDS011;11773;52.570;13.052;2023-06-14T12:31:49;2.20;;;1.90;;
23206;SDS011;11773;52.570;13.052;2023-06-14T12:34:20;2.53;;;2.00;;
23206;SDS011;11773;52.570;13.052;2023-06-14T12:36:51;1.80;;;1.70;;
23206;SDS011;11773;52.570;13.052;2023-06-14T12:39:24;2.50;;;2.30;;
23206;SDS011;11773;52.570;13.052;2023-06-14T12:41:53;1.93;;;1.83;;
23206;SDS011;11773;52.570;13.052;2023-06-14T12:44:23;1.50;;;1.40;;
23206;SDS011;11773;52.570;13.052;2023-06-14T12:46:53;1.90;;;1.80;;
23206;SDS011;11773;52.570;13.052;2023-06-14T12:49:22;2.07;;;1.83;;
23206;SDS011;11773;52.570;13.052;2023-06-14T12:51:52;1.70;;;1.60;;
23206;SDS011;11773;52.570;13.052;2023-06-14T12:54:22;1.77;;;1.67;;
23206;SDS011;11773;52.570;13.052;2023-06-14T12:56:54;2.00;;;1.90;;
23206;SDS011;11773;52.570;13.052;2023-06-14T12:59:23;1.77;;;1.60;;
23206;SDS011;11773;52.570;13.052;2023-06-14T13:01:55;1.80;;;1.70;;
23206;SDS011;11773;52.570;13.052;2023-06-14T13:04:24;2.50;;;1.90;;
23206;SDS011;11773;52.570;13.052;2023-06-14T13:06:54;1.47;;;1.37;;
23206;SDS011;11773;52.570;13.052;2023-06-14T13:09:24;2.20;;;2.00;;
23206;SDS011;11773;52.570;13.052;2023-06-14T13:11:54;2.43;;;2.10;;
23206;SDS011;11773;52.570;13.052;2023-06-14T13:14:23;2.10;;;1.87;;
23206;SDS011;11773;52.570;13.052;2023-06-14T13:16:53;1.60;;;1.50;;
23206;SDS011;11773;52.570;13.052;2023-06-14T13:19:23;3.67;;;1.80;;
23206;SDS011;11773;52.570;13.052;2023-06-14T13:21:52;1.80;;;1.70;;
23206;SDS011;11773;52.570;13.052;2023-06-14T13:24:22;1.73;;;1.63;;
23206;SDS011;11773;52.570;13.052;2023-06-14T13:26:53;2.10;;;1.90;;
23206;SDS011;11773;52.570;13.052;2023-06-14T13:29:23;3.50;;;2.03;;
23206;SDS011;11773;52.570;13.052;2023-06-14T13:31:54;1.93;;;1.83;;
23206;SDS011;11773;52.570;13.052;2023-06-14T13:34:24;2.20;;;2.00;;
23206;SDS011;11773;52.570;13.052;2023-06-14T13:36:53;3.40;;;2.63;;
23206;SDS011;11773;52.570;13.052;2023-06-14T13:39:26;2.27;;;2.17;;
23206;SDS011;11773;52.570;13.052;2023-06-14T13:41:55;1.60;;;1.50;;
23206;SDS011;11773;52.570;13.052;2023-06-14T13:44:25;2.63;;;1.90;;
23206;SDS011;11773;52.570;13.052;2023-06-14T13:46:55;1.90;;;1.67;;
23206;SDS011;11773;52.570;13.052;2023-06-14T13:49:24;1.90;;;1.80;;
23206;SDS011;11773;52.570;13.052;2023-06-14T13:51:54;1.87;;;1.77;;
23206;SDS011;11773;52.570;13.052;2023-06-14T13:54:24;1.67;;;1.57;;
23206;SDS011;11773;52.570;13.052;2023-06-14T13:56:55;1.30;;;1.30;;
23206;SDS011;11773;52.570;13.052;2023-06-14T13:59:25;1.47;;;1.30;;
23206;SDS011;11773;52.570;13.052;2023-06-14T14:01:54;1.57;;;1.47;;
23206;SDS011;11773;52.570;13.052;2023-06-14T14:04:25;2.00;;;1.47;;
23206;SDS011;11773;52.570;13.052;2023-06-14T14:06:55;1.97;;;1.87;;
23206;SDS011;11773;52.570;13.052;2023-06-14T14:09:25;1.50;;;1.40;;
23206;SDS011;11773;52.570;13.052;2023-06-14T14:11:54;1.27;;;1.17;;
23206;SDS011;11773;52.570;13.052;2023-06-14T14:14:25;1.73;;;1.47;;
23206;SDS011;11773;52.570;13.052;2023-06-14T14:16:55;2.00;;;1.80;;
23206;SDS011;11773;52.570;13.052;2023-06-14T14:19:27;2.00;;;1.90;;
23206;SDS011;11773;52.570;13.052;2023-06-14T14:21:57;1.40;;;1.30;;
23206;SDS011;11773;52.570;13.052;2023-06-14T14:24:28;1.53;;;1.43;;
23206;SDS011;11773;52.570;13.052;2023-06-14T14:26:58;1.30;;;1.20;;
23206;SDS011;11773;52.570;13.052;2023-06-14T14:29:27;0.93;;;0.93;;
23206;SDS011;11773;52.570;13.052;2023-06-14T14:31:57;1.10;;;1.10;;
23206;SDS011;11773;52.570;13.052;2023-06-14T14:34:27;1.73;;;1.37;;
23206;SDS011;11773;52.570;13.052;2023-06-14T14:36:56;0.90;;;0.90;;
23206;SDS011;11773;52.570;13.052;2023-06-14T14:39:26;0.80;;;0.80;;
23206;SDS011;11773;52.570;13.052;2023-06-14T14:41:57;1.10;;;1.10;;
23206;SDS011;11773;52.570;13.052;2023-06-14T14:44:27;0.80;;;0.80;;
23206;SDS011;11773;52.570;13.052;2023-06-14T14:46:56;0.90;;;0.90;;
23206;SDS011;11773;52.570;13.052;2023-06-14T14:49:26;1.20;;;1.10;;
23206;SDS011;11773;52.570;13.052;2023-06-14T14:51:56;0.80;;;0.80;;
23206;SDS011;11773;52.570;13.052;2023-06-14T14:54:27;1.07;;;1.07;;
23206;SDS011;11773;52.570;13.052;2023-06-14T14:56:57;1.20;;;1.00;;
23206;SDS011;11773;52.570;13.052;2023-06-14T14:59:27;0.90;;;0.80;;
23206;SDS011;11773;52.570;13.052;2023-06-14T15:01:57;1.20;;;1.10;;
23206;SDS011;11773;52.570;13.052;2023-06-14T15:04:26;1.20;;;1.10;;